Time;durP1;ratioP1;P1;durP2;ratioP2;P2;SDS_P1;SDS_P2;PMS_P1;PMS_P2;Temp;Humidity;BMP_temperature;BMP_pressure;BME280_temperature;BME280_humidity;BME280_pressure;Samples;Min_cycle;Max_cycle;Signal;HPM_P1;HPM_P2
2023/12/01 00:01:42;;;;;;;30.40;18.03;;;-1.70;99.90;;;;;;5071752;28;20199;-80
2023/12/01 00:04:09;;;;;;;28.27;17.40;;;-1.60;1.00;;;;;;5072228;28;20203;-80
2023/12/01 00:06:36;;;;;;;31.80;18.53;;;-1.50;99.90;;;;;;5077368;28;20204;-80
2023/12/01 00:09:03;;;;;;;30.93;18.90;;;-1.50;99.90;;;;;;5069771;28;20214;-80
2023/12/01 00:11:29;;;;;;;30.53;18.83;;;-1.40;1.00;;;;;;5074399;28;20199;-80
2023/12/01 00:13:56;;;;;;;29.53;18.27;;;-1.30;1.00;;;;;;5068020;28;20230;-80
2023/12/01 00:16:23;;;;;;;30.27;18.73;;;-1.20;1.00;;;;;;5076153;28;20209;-80
2023/12/01 00:18:51;;;;;;;32.83;20.40;;;-1.20;1.00;;;;;;5072169;28;20305;-80
2023/12/01 00:21:18;;;;;;;29.57;19.00;;;-1.30;99.90;;;;;;5063868;28;20202;-80
2023/12/01 00:23:45;;;;;;;29.03;18.33;;;-1.30;1.00;;;;;;5072050;28;20195;-80
2023/12/01 00:26:11;;;;;;;30.80;19.27;;;-1.20;1.00;;;;;;5072315;28;20205;-80
2023/12/01 00:28:38;;;;;;;31.07;17.93;;;-1.10;1.00;;;;;;5063578;28;20226;-80
2023/12/01 00:31:05;;;;;;;29.37;18.23;;;-1.20;1.00;;;;;;5065865;28;20199;-80
2023/12/01 00:33:32;;;;;;;29.10;16.60;;;-1.30;1.00;;;;;;5068871;28;20707;-80
2023/12/01 00:36:00;;;;;;;30.50;18.40;;;-1.20;1.00;;;;;;5069682;28;20649;-80
2023/12/01 00:38:27;;;;;;;32.27;18.70;;;-1.20;1.00;;;;;;5076964;28;20295;-80
2023/12/01 00:40:54;;;;;;;33.37;19.40;;;-1.20;1.00;;;;;;5077368;28;20195;-80
2023/12/01 00:43:20;;;;;;;29.80;18.33;;;-1.20;1.00;;;;;;5070236;28;20194;-80
2023/12/01 00:45:47;;;;;;;28.30;17.30;;;-1.20;1.00;;;;;;5072583;28;20230;-79
2023/12/01 00:48:14;;;;;;;33.07;18.97;;;-1.10;1.00;;;;;;5076610;28;20225;-80
2023/12/01 00:50:41;;;;;;;32.03;18.63;;;-1.20;1.00;;;;;;5072184;28;20569;-80
2023/12/01 00:53:09;;;;;;;33.00;18.60;;;-1.20;1.00;;;;;;5064279;28;20223;-80
2023/12/01 00:55:36;;;;;;;31.10;18.73;;;-1.20;1.00;;;;;;5072225;28;20710;-80
2023/12/01 00:58:03;;;;;;;31.73;18.53;;;-1.10;1.00;;;;;;5074353;28;20237;-80
2023/12/01 01:00:30;;;;;;;29.90;18.23;;;-1.10;1.00;;;;;;5068021;28;20199;-80
2023/12/01 01:02:58;;;;;;;33.00;19.73;;;-1.00;1.00;;;;;;5069217;28;20203;-80
2023/12/01 01:05:24;;;;;;;32.13;17.60;;;-0.90;1.00;;;;;;5070322;28;20259;-80
2023/12/01 01:07:51;;;;;;;30.63;19.07;;;-0.90;1.00;;;;;;5066901;28;20641;-80
2023/12/01 01:10:19;;;;;;;31.63;17.33;;;-0.90;1.00;;;;;;5070575;28;20195;-80
2023/12/01 01:12:46;;;;;;;33.23;18.00;;;-1.00;1.00;;;;;;5074215;28;20230;-80
2023/12/01 01:15:13;;;;;;;31.50;18.43;;;-1.00;1.00;;;;;;5065819;28;20210;-80
2023/12/01 01:17:40;;;;;;;31.50;19.10;;;-1.00;1.00;;;;;;5067027;28;20571;-79
2023/12/01 01:20:09;;;;;;;33.97;19.73;;;-1.00;1.00;;;;;;5066555;28;20218;-80
2023/12/01 01:22:36;;;;;;;35.03;19.87;;;-1.00;1.00;;;;;;5061663;28;20195;-80
2023/12/01 01:25:04;;;;;;;33.13;18.73;;;-0.90;1.00;;;;;;5062624;28;20203;-80
2023/12/01 01:27:32;;;;;;;36.67;20.77;;;-1.00;1.00;;;;;;5069422;28;20213;-80
2023/12/01 01:29:59;;;;;;;35.57;19.50;;;-1.00;1.00;;;;;;5067255;28;20576;-80
2023/12/01 01:32:26;;;;;;;34.63;19.80;;;-1.00;1.00;;;;;;5070652;28;20642;-80
2023/12/01 01:34:53;;;;;;;33.97;17.20;;;-0.90;1.00;;;;;;5074040;28;20637;-80
2023/12/01 01:37:20;;;;;;;32.87;18.43;;;-0.90;1.00;;;;;;5068238;28;20203;-80
2023/12/01 01:39:46;;;;;;;30.57;17.00;;;-0.90;1.00;;;;;;5066683;28;20271;-80
2023/12/01 01:42:13;;;;;;;32.33;19.50;;;-0.90;1.00;;;;;;5072851;28;20676;-80
2023/12/01 01:44:42;;;;;;;33.93;20.87;;;-1.00;1.00;;;;;;5072797;28;20285;-80
2023/12/01 01:47:09;;;;;;;32.87;19.30;;;-1.00;1.00;;;;;;5073171;28;20238;-80
2023/12/01 01:49:35;;;;;;;35.90;19.73;;;-1.00;1.00;;;;;;5063884;28;20223;-80
2023/12/01 01:52:04;;;;;;;34.47;20.47;;;-0.90;1.00;;;;;;5073422;28;20203;-80
2023/12/01 01:54:31;;;;;;;36.30;20.67;;;-0.90;1.00;;;;;;5073566;28;20222;-80
2023/12/01 01:56:58;;;;;;;34.50;18.67;;;-0.80;1.00;;;;;;5065396;28;20287;-80
2023/12/01 01:59:25;;;;;;;34.83;20.67;;;-0.70;1.00;;;;;;5069572;28;20225;-80
2023/12/01 02:01:53;;;;;;;33.77;17.03;;;-0.70;1.00;;;;;;5065490;28;20217;-80
2023/12/01 02:04:20;;;;;;;33.63;19.97;;;-0.70;1.00;;;;;;5068165;28;20241;-80
2023/12/01 02:06:47;;;;;;;34.53;19.97;;;-0.70;1.00;;;;;;5075181;28;20557;-80
2023/12/01 02:09:15;;;;;;;33.83;20.63;;;-0.70;1.00;;;;;;5072310;28;20615;-80
2023/12/01 02:11:42;;;;;;;33.60;18.43;;;-0.80;1.00;;;;;;5075142;28;20252;-80
2023/12/01 02:14:09;;;;;;;33.00;20.40;;;-0.70;1.00;;;;;;5068328;28;20226;-80
2023/12/01 02:16:36;;;;;;;35.07;20.90;;;-0.70;1.00;;;;;;5069088;28;20202;-80
2023/12/01 02:19:04;;;;;;;34.13;19.60;;;-0.70;1.00;;;;;;5076237;28;20218;-80
2023/12/01 02:21:36;;;;;;;35.60;20.23;;;-0.70;1.00;;;;;;5076519;28;20199;-80
2023/12/01 02:24:03;;;;;;;34.37;20.07;;;-0.70;1.00;;;;;;5062078;28;20297;-80
2023/12/01 02:26:30;;;;;;;37.07;21.93;;;-0.80;99.90;;;;;;5067333;28;20211;-80
2023/12/01 02:28:57;;;;;;;35.20;21.43;;;-0.70;99.90;;;;;;5071714;28;20226;-80
2023/12/01 02:31:23;;;;;;;35.37;21.50;;;-0.80;1.00;;;;;;5065836;28;20203;-80
2023/12/01 02:33:53;;;;;;;36.13;21.57;;;-0.80;1.00;;;;;;5063722;28;20759;-80
2023/12/01 02:36:20;;;;;;;31.80;18.50;;;-0.80;1.00;;;;;;5069192;28;20202;-80
2023/12/01 02:38:48;;;;;;;32.27;18.83;;;-0.80;99.90;;;;;;5067647;28;20218;-80
2023/12/01 02:41:17;;;;;;;35.97;19.77;;;-0.80;99.90;;;;;;5065975;28;20285;-80
2023/12/01 02:43:45;;;;;;;34.53;20.83;;;-0.80;99.90;;;;;;5063193;28;20195;-80
2023/12/01 02:46:12;;;;;;;37.10;21.30;;;-0.80;1.00;;;;;;5070860;28;20205;-80
2023/12/01 02:48:39;;;;;;;34.00;20.40;;;-0.80;1.00;;;;;;5070945;28;20780;-80
2023/12/01 02:51:06;;;;;;;34.30;20.67;;;-0.80;1.00;;;;;;5069195;28;20210;-80
2023/12/01 02:53:33;;;;;;;34.17;20.43;;;-0.80;1.00;;;;;;5070220;28;20221;-80
2023/12/01 02:56:01;;;;;;;34.67;20.90;;;-0.80;1.00;;;;;;5069847;28;20226;-80
2023/12/01 02:58:28;;;;;;;32.60;18.00;;;-0.80;1.00;;;;;;5072957;28;20703;-80
2023/12/01 03:00:57;;;;;;;33.37;18.97;;;-0.70;1.00;;;;;;5074461;28;20269;-80
2023/12/01 03:03:24;;;;;;;34.80;20.00;;;-0.70;1.00;;;;;;5067467;28;20626;-80
2023/12/01 03:05:50;;;;;;;34.93;21.10;;;-0.80;1.00;;;;;;5072745;28;20679;-80
2023/12/01 03:08:17;;;;;;;37.03;21.10;;;-0.80;1.00;;;;;;5071173;28;20214;-80
2023/12/01 03:10:44;;;;;;;34.43;19.40;;;-0.70;1.00;;;;;;5076433;28;20198;-80
2023/12/01 03:13:12;;;;;;;33.27;19.40;;;-0.80;1.00;;;;;;5068912;28;20233;-80
2023/12/01 03:15:40;;;;;;;36.47;20.67;;;-0.80;1.00;;;;;;5065001;28;20205;-80
2023/12/01 03:18:07;;;;;;;37.30;21.40;;;-0.70;1.00;;;;;;5069393;28;20253;-80
2023/12/01 03:20:34;;;;;;;37.23;21.93;;;-0.70;1.00;;;;;;5072329;28;20199;-80
2023/12/01 03:23:01;;;;;;;36.07;17.63;;;-0.70;1.00;;;;;;5063557;28;20239;-80
2023/12/01 03:25:28;;;;;;;38.03;21.60;;;-0.60;1.00;;;;;;5067547;28;20206;-80
2023/12/01 03:27:57;;;;;;;36.13;19.63;;;-0.60;1.00;;;;;;5067242;28;20206;-81
2023/12/01 03:30:25;;;;;;;34.93;21.20;;;-0.50;1.00;;;;;;5063799;28;20780;-80
2023/12/01 03:32:54;;;;;;;39.00;22.63;;;-0.60;1.00;;;;;;5067642;28;20285;-80
2023/12/01 03:35:22;;;;;;;37.30;21.50;;;-0.60;1.00;;;;;;5061989;28;20227;-81
2023/12/01 03:37:50;;;;;;;41.10;22.97;;;-0.60;1.00;;;;;;5064731;28;20199;-80
2023/12/01 03:40:17;;;;;;;39.03;20.50;;;-0.60;1.00;;;;;;5066361;28;20685;-80
2023/12/01 03:42:45;;;;;;;39.30;23.07;;;-0.60;1.00;;;;;;5060141;28;20293;-80
2023/12/01 03:45:13;;;;;;;40.40;22.90;;;-0.60;1.00;;;;;;5067995;28;20194;-80
2023/12/01 03:47:42;;;;;;;36.33;18.67;;;-0.60;1.00;;;;;;5064695;28;20198;-80
2023/12/01 03:50:11;;;;;;;37.30;20.17;;;-0.60;1.00;;;;;;5063439;28;20214;-80
2023/12/01 03:52:40;;;;;;;36.10;18.37;;;-0.50;1.00;;;;;;5069074;28;20202;-80
2023/12/01 03:55:07;;;;;;;39.10;22.77;;;-0.60;1.00;;;;;;5065383;28;20218;-80
2023/12/01 03:57:34;;;;;;;39.43;20.63;;;-0.50;1.00;;;;;;5065724;28;20198;-80
2023/12/01 04:00:04;;;;;;;36.47;20.00;;;-0.50;1.00;;;;;;5067559;28;20219;-80
2023/12/01 04:02:31;;;;;;;45.07;21.63;;;-0.50;1.00;;;;;;5071754;28;20205;-80
2023/12/01 04:04:59;;;;;;;36.33;18.57;;;-0.50;1.00;;;;;;5070527;28;20209;-79
2023/12/01 04:07:26;;;;;;;34.93;19.60;;;-0.50;1.00;;;;;;5070160;28;20206;-80
2023/12/01 04:09:53;;;;;;;35.13;20.10;;;-0.50;1.00;;;;;;5067743;28;20218;-79
2023/12/01 04:12:19;;;;;;;35.87;19.83;;;-0.50;1.00;;;;;;5073252;28;20203;-79
2023/12/01 04:14:46;;;;;;;34.63;20.37;;;-0.50;1.00;;;;;;5073956;28;20301;-81
2023/12/01 04:17:13;;;;;;;35.67;21.70;;;-0.50;1.00;;;;;;5071504;28;20206;-80
2023/12/01 04:19:40;;;;;;;36.20;20.93;;;-0.50;1.00;;;;;;5071587;28;20348;-80
2023/12/01 04:22:08;;;;;;;39.77;23.47;;;-0.50;1.00;;;;;;5070343;28;20206;-79
2023/12/01 04:24:35;;;;;;;39.50;22.63;;;-0.50;1.00;;;;;;5067932;28;20217;-79
2023/12/01 04:27:02;;;;;;;40.13;22.43;;;-0.50;1.00;;;;;;5073540;28;20808;-80
2023/12/01 04:29:30;;;;;;;40.87;21.77;;;-0.60;1.00;;;;;;5070661;28;20587;-80
2023/12/01 04:31:57;;;;;;;43.77;23.70;;;-0.50;1.00;;;;;;5056667;28;20199;-80
2023/12/01 04:34:26;;;;;;;40.43;22.53;;;-0.40;31.70;;;;;;5059180;28;20214;-79
2023/12/01 04:36:53;;;;;;;37.97;21.50;;;-0.50;1.00;;;;;;5061274;28;20281;-80
2023/12/01 04:39:21;;;;;;;40.33;22.13;;;-0.50;1.00;;;;;;5071884;28;20592;-79
2023/12/01 04:41:50;;;;;;;40.90;23.07;;;-0.50;1.00;;;;;;5071032;28;20214;-79
2023/12/01 04:44:16;;;;;;;43.37;24.23;;;-0.50;1.00;;;;;;5063328;28;20205;-79
2023/12/01 04:46:43;;;;;;;44.37;23.83;;;-0.50;1.00;;;;;;5069020;28;20194;-79
2023/12/01 04:49:10;;;;;;;41.70;23.37;;;-0.60;1.00;;;;;;5067165;28;20233;-79
2023/12/01 04:51:36;;;;;;;41.70;22.47;;;-0.60;1.00;;;;;;5067938;28;20203;-79
2023/12/01 04:54:04;;;;;;;46.37;25.10;;;-0.60;1.00;;;;;;5067043;28;20221;-79
2023/12/01 04:56:33;;;;;;;45.77;24.37;;;-0.60;1.00;;;;;;5067442;28;20211;-79
2023/12/01 04:59:00;;;;;;;38.17;21.93;;;-0.60;1.00;;;;;;5065745;28;20228;-79
2023/12/01 05:01:27;;;;;;;40.57;19.57;;;-0.50;1.00;;;;;;5068062;28;20203;-80
2023/12/01 05:03:53;;;;;;;38.60;19.70;;;-0.50;7.40;;;;;;5069681;28;20201;-80
2023/12/01 05:06:20;;;;;;;39.07;18.97;;;-0.50;6.40;;;;;;5066606;28;20267;-79
2023/12/01 05:08:47;;;;;;;41.17;19.90;;;-0.50;1.00;;;;;;5068141;28;20246;-79
2023/12/01 05:11:14;;;;;;;42.47;20.13;;;-0.60;1.00;;;;;;5069590;28;20198;-79
2023/12/01 05:13:42;;;;;;;40.73;20.53;;;-0.60;1.00;;;;;;5071439;28;20685;-80
2023/12/01 05:16:08;;;;;;;40.47;21.10;;;-0.60;1.00;;;;;;5067906;28;20662;-79
2023/12/01 05:18:35;;;;;;;39.23;18.97;;;-0.60;63.10;;;;;;5070926;28;20229;-79
2023/12/01 05:21:07;;;;;;;39.73;20.60;;;-0.60;1.00;;;;;;5071722;28;20201;-79
2023/12/01 05:23:35;;;;;;;36.03;18.87;;;-0.60;1.00;;;;;;5070714;28;20215;-78
2023/12/01 05:26:02;;;;;;;39.83;19.87;;;-0.60;1.00;;;;;;5064878;28;20194;-80
2023/12/01 05:28:29;;;;;;;43.87;22.17;;;-0.60;1.00;;;;;;5070513;28;20280;-79
2023/12/01 05:30:57;;;;;;;39.40;20.60;;;-0.70;1.00;;;;;;5071860;28;20657;-79
2023/12/01 05:33:26;;;;;;;40.40;20.60;;;-0.70;16.40;;;;;;5070924;28;20694;-79
2023/12/01 05:35:53;;;;;;;42.30;20.80;;;-0.80;6.90;;;;;;5056994;28;20199;-79
2023/12/01 05:38:20;;;;;;;38.80;19.83;;;-0.80;14.00;;;;;;5063429;28;20601;-80
2023/12/01 05:40:46;;;;;;;35.50;17.90;;;-0.80;1.00;;;;;;5070014;28;20201;-78
2023/12/01 05:43:16;;;;;;;37.40;20.00;;;-0.80;1.00;;;;;;5059318;28;20203;-79
2023/12/01 05:45:43;;;;;;;35.03;18.17;;;-0.80;1.00;;;;;;5064194;28;20201;-78
2023/12/01 05:48:11;;;;;;;35.90;20.00;;;-0.80;1.00;;;;;;5062652;28;20233;-78
2023/12/01 05:50:41;;;;;;;32.63;18.40;;;-0.80;1.00;;;;;;5062423;28;20210;-79
2023/12/01 05:53:10;;;;;;;32.63;18.37;;;-0.80;1.00;;;;;;5062051;28;20206;-80
2023/12/01 05:55:37;;;;;;;36.33;19.27;;;-0.80;99.90;;;;;;5063082;28;20285;-80
2023/12/01 05:58:06;;;;;;;34.23;18.83;;;-0.70;1.00;;;;;;5063152;28;20740;-79
2023/12/01 06:00:33;;;;;;;33.63;17.07;;;-0.90;1.00;;;;;;5066002;28;20212;-81
2023/12/01 06:03:02;;;;;;;34.07;18.83;;;-0.90;1.00;;;;;;5066578;28;20222;-78
2023/12/01 06:05:31;;;;;;;35.20;19.17;;;-0.90;1.00;;;;;;5065231;28;20646;-79
2023/12/01 06:07:59;;;;;;;34.10;18.90;;;-1.00;1.00;;;;;;5069111;28;20207;-79
2023/12/01 06:10:27;;;;;;;33.80;18.47;;;-1.00;99.90;;;;;;5067363;28;20199;-79
2023/12/01 06:12:55;;;;;;;29.70;15.97;;;-0.90;1.00;;;;;;5066554;28;20263;-79
2023/12/01 06:15:24;;;;;;;33.33;16.83;;;-1.00;1.00;;;;;;5066380;28;20227;-79
2023/12/01 06:17:51;;;;;;;31.47;16.57;;;-1.00;61.20;;;;;;5067233;28;20202;-79
2023/12/01 06:20:20;;;;;;;30.07;16.47;;;-1.10;1.00;;;;;;5069591;28;20207;-79
2023/12/01 06:22:49;;;;;;;33.33;18.10;;;-1.00;1.00;;;;;;5068258;28;20779;-79
2023/12/01 06:25:16;;;;;;;33.33;18.40;;;-1.00;1.00;;;;;;5066802;28;20205;-79
2023/12/01 06:27:44;;;;;;;28.97;15.87;;;-1.00;1.00;;;;;;5066899;28;20201;-79
2023/12/01 06:30:12;;;;;;;32.07;17.30;;;-1.00;1.00;;;;;;5069369;28;20593;-79
2023/12/01 06:32:41;;;;;;;31.23;17.03;;;-1.10;1.00;;;;;;5067975;28;20206;-79
2023/12/01 06:35:13;;;;;;;36.00;19.00;;;-1.00;1.00;;;;;;5071338;28;20268;-79
2023/12/01 06:37:41;;;;;;;35.37;18.47;;;-1.00;1.00;;;;;;5070541;28;20206;-79
2023/12/01 06:40:12;;;;;;;40.03;21.03;;;-1.00;1.00;;;;;;5067936;28;20233;-80
2023/12/01 06:42:41;;;;;;;42.13;22.20;;;-1.00;99.90;;;;;;5061354;28;20206;-79
2023/12/01 06:45:10;;;;;;;44.63;22.70;;;-0.90;99.90;;;;;;5066853;28;20206;-79
2023/12/01 06:47:38;;;;;;;41.57;22.07;;;-1.00;1.00;;;;;;5066719;28;20206;-79
2023/12/01 06:50:05;;;;;;;41.23;21.87;;;-1.00;1.00;;;;;;5069449;28;20236;-80
2023/12/01 06:52:33;;;;;;;39.37;20.23;;;-1.00;1.00;;;;;;5068696;28;20198;-80
2023/12/01 06:54:59;;;;;;;40.70;19.67;;;-1.00;1.00;;;;;;5062768;28;20233;-80
2023/12/01 06:57:28;;;;;;;39.60;18.70;;;-1.00;1.00;;;;;;5062209;28;20202;-80
2023/12/01 06:59:54;;;;;;;41.20;21.80;;;-1.00;1.00;;;;;;5063882;28;20221;-80
2023/12/01 07:02:21;;;;;;;37.47;20.03;;;-1.00;1.00;;;;;;5064862;28;20213;-80
2023/12/01 07:04:48;;;;;;;39.13;19.37;;;-1.10;99.90;;;;;;5063719;28;20282;-81
2023/12/01 07:07:15;;;;;;;38.47;19.40;;;-1.00;99.90;;;;;;5063343;28;20611;-81
2023/12/01 07:09:43;;;;;;;34.37;17.40;;;-1.00;99.90;;;;;;5065909;28;20254;-80
2023/12/01 07:12:10;;;;;;;35.67;18.67;;;-1.00;1.00;;;;;;5064410;28;20264;-80
2023/12/01 07:14:39;;;;;;;37.97;18.27;;;-1.00;1.00;;;;;;5071429;28;20702;-80
2023/12/01 07:17:06;;;;;;;30.90;15.90;;;-1.10;99.90;;;;;;5067066;28;20238;-80
2023/12/01 07:19:33;;;;;;;31.40;17.17;;;-1.20;99.90;;;;;;5068800;28;20218;-81
2023/12/01 07:22:00;;;;;;;34.60;18.17;;;-1.20;99.90;;;;;;5071374;28;20202;-82
2023/12/01 07:24:27;;;;;;;31.67;16.60;;;-1.10;99.90;;;;;;5063453;28;20212;-80
2023/12/01 07:26:54;;;;;;;30.63;15.57;;;-1.00;99.90;;;;;;5070530;28;20199;-80
2023/12/01 07:29:21;;;;;;;30.97;16.00;;;-1.10;1.00;;;;;;5064338;28;20659;-84
2023/12/01 07:31:51;;;;;;;32.70;16.60;;;-1.10;1.00;;;;;;5068018;28;20201;-81
2023/12/01 07:34:19;;;;;;;32.87;16.60;;;-1.20;1.00;;;;;;5069570;28;20206;-79
2023/12/01 07:36:46;;;;;;;36.43;16.37;;;-1.10;1.00;;;;;;5070236;28;20206;-81
2023/12/01 07:39:13;;;;;;;31.57;15.63;;;-1.30;1.00;;;;;;5071142;28;20266;-80
2023/12/01 07:41:40;;;;;;;28.43;15.57;;;-1.30;28.90;;;;;;5068150;28;20696;-80
2023/12/01 07:44:07;;;;;;;27.10;14.27;;;-1.40;1.00;;;;;;5072506;28;20571;-80
2023/12/01 07:46:33;;;;;;;30.67;15.17;;;-1.30;1.00;;;;;;5075435;28;20790;-80
2023/12/01 07:49:02;;;;;;;29.47;15.53;;;-1.40;99.90;;;;;;5065742;28;20615;-80
2023/12/01 07:51:28;;;;;;;30.50;14.93;;;-1.40;99.90;;;;;;5074935;28;20297;-80
2023/12/01 07:53:55;;;;;;;29.57;15.47;;;-1.30;99.90;;;;;;5074694;28;20206;-81
2023/12/01 07:56:22;;;;;;;33.67;17.37;;;-1.30;1.00;;;;;;5064654;28;20222;-80
2023/12/01 07:58:50;;;;;;;32.63;17.27;;;-1.20;1.00;;;;;;5069209;28;20667;-79
2023/12/01 08:01:17;;;;;;;31.10;16.23;;;-1.20;99.90;;;;;;5067496;28;20199;-79
2023/12/01 08:03:46;;;;;;;28.53;15.00;;;-1.30;1.00;;;;;;5067858;28;20198;-78
2023/12/01 08:06:14;;;;;;;30.03;15.57;;;-1.30;1.00;;;;;;5065289;28;20202;-79
2023/12/01 08:08:42;;;;;;;33.40;17.80;;;-1.40;99.90;;;;;;5066102;28;20222;-79
2023/12/01 08:11:09;;;;;;;34.00;17.77;;;-1.40;1.00;;;;;;5068232;28;20199;-79
2023/12/01 08:13:36;;;;;;;33.30;16.97;;;-1.30;99.90;;;;;;5067988;28;20195;-80
2023/12/01 08:16:04;;;;;;;31.70;18.37;;;-1.30;90.90;;;;;;5071995;28;20229;-79
2023/12/01 08:18:31;;;;;;;31.03;17.47;;;-1.30;99.90;;;;;;5071644;28;20305;-80
2023/12/01 08:20:58;;;;;;;31.73;16.60;;;-1.20;1.00;;;;;;5072717;28;20216;-79
2023/12/01 08:23:26;;;;;;;30.07;16.93;;;-1.20;1.00;;;;;;5062765;28;20206;-80
2023/12/01 08:25:53;;;;;;;31.03;18.03;;;-1.20;1.00;;;;;;5066206;28;20199;-80
2023/12/01 08:28:20;;;;;;;35.70;18.90;;;-1.20;1.00;;;;;;5073317;28;20226;-80
2023/12/01 08:30:47;;;;;;;32.20;17.40;;;-1.20;99.90;;;;;;5070992;28;20206;-79
2023/12/01 08:33:14;;;;;;;33.70;17.40;;;-1.20;1.00;;;;;;5067485;28;20210;-80
2023/12/01 08:35:41;;;;;;;31.10;16.80;;;-1.20;1.00;;;;;;5066830;28;20218;-80
2023/12/01 08:38:09;;;;;;;33.73;17.00;;;-1.20;1.00;;;;;;5072566;28;20233;-80
2023/12/01 08:40:38;;;;;;;33.23;17.50;;;-1.20;1.00;;;;;;5070611;28;20210;-79
2023/12/01 08:43:05;;;;;;;32.13;17.90;;;-1.20;1.00;;;;;;5075347;28;20316;-80
2023/12/01 08:45:34;;;;;;;32.03;16.73;;;-1.20;70.70;;;;;;5070652;28;20203;-80
2023/12/01 08:48:01;;;;;;;33.07;17.77;;;-1.10;1.00;;;;;;5069578;28;20203;-80
2023/12/01 08:50:29;;;;;;;33.97;17.80;;;-1.20;1.00;;;;;;5072950;28;20931;-80
2023/12/01 08:52:55;;;;;;;31.50;16.60;;;-1.10;99.90;;;;;;5071329;28;20198;-81
2023/12/01 08:55:22;;;;;;;30.50;16.57;;;-1.20;99.90;;;;;;5073433;28;20230;-80
2023/12/01 08:57:51;;;;;;;36.87;18.10;;;-1.10;1.00;;;;;;5068500;28;20306;-80
2023/12/01 09:00:21;;;;;;;33.93;17.00;;;-1.10;99.90;;;;;;5069894;28;20210;-79
2023/12/01 09:02:49;;;;;;;31.00;15.97;;;-1.20;1.00;;;;;;5067312;28;20245;-79
2023/12/01 09:05:17;;;;;;;32.57;17.60;;;-1.20;1.00;;;;;;5063346;28;20198;-81
2023/12/01 09:07:46;;;;;;;29.33;15.83;;;-1.20;1.00;;;;;;5068179;28;20198;-80
2023/12/01 09:10:13;;;;;;;32.57;17.67;;;-1.20;1.00;;;;;;5063033;28;20289;-80
2023/12/01 09:12:40;;;;;;;32.53;16.73;;;-1.20;1.00;;;;;;5069241;28;20198;-80
2023/12/01 09:15:10;;;;;;;32.93;17.20;;;-1.30;1.00;;;;;;5068665;28;20223;-80
2023/12/01 09:17:37;;;;;;;33.10;16.93;;;-1.20;1.00;;;;;;5062322;28;20206;-81
2023/12/01 09:20:04;;;;;;;32.83;16.37;;;-1.30;1.00;;;;;;5066869;28;20226;-80
2023/12/01 09:22:31;;;;;;;33.27;16.80;;;-1.20;1.00;;;;;;5066677;28;20221;-80
2023/12/01 09:24:58;;;;;;;30.17;16.10;;;-1.30;1.00;;;;;;5067500;28;20203;-80
2023/12/01 09:27:24;;;;;;;31.27;15.97;;;-1.20;1.00;;;;;;5066567;28;20198;-81
2023/12/01 09:29:51;;;;;;;28.40;14.97;;;-1.20;1.00;;;;;;5062228;28;20246;-81
2023/12/01 09:32:20;;;;;;;31.47;16.77;;;-1.20;1.00;;;;;;5066692;28;20198;-81
2023/12/01 09:34:48;;;;;;;26.00;13.43;;;-1.20;99.90;;;;;;5063228;28;20205;-80
2023/12/01 09:37:14;;;;;;;26.43;13.13;;;-1.30;1.00;;;;;;5064465;28;20252;-79
2023/12/01 09:39:41;;;;;;;24.90;13.17;;;-1.30;1.00;;;;;;5065718;28;20218;-81
2023/12/01 09:42:09;;;;;;;24.30;12.60;;;-1.20;1.00;;;;;;5066910;28;20222;-81
2023/12/01 09:44:36;;;;;;;28.40;13.60;;;-1.10;1.00;;;;;;5066983;28;20194;-81
2023/12/01 09:47:04;;;;;;;24.87;13.43;;;-1.10;1.00;;;;;;5070269;28;20205;-81
2023/12/01 09:49:34;;;;;;;25.53;12.47;;;-1.10;1.00;;;;;;5066633;28;20600;-80
2023/12/01 09:52:02;;;;;;;25.63;12.97;;;-1.10;1.00;;;;;;5070175;28;20207;-80
2023/12/01 09:54:29;;;;;;;23.50;12.03;;;-1.20;1.00;;;;;;5068275;28;20206;-80
2023/12/01 09:56:57;;;;;;;26.77;13.80;;;-1.20;1.00;;;;;;5068079;28;20219;-80
2023/12/01 09:59:25;;;;;;;24.33;12.07;;;-1.20;1.00;;;;;;5067827;28;20218;-81
2023/12/01 10:01:53;;;;;;;23.90;12.47;;;-1.20;1.00;;;;;;5066222;28;20946;-80
2023/12/01 10:04:20;;;;;;;24.10;12.13;;;-1.20;99.90;;;;;;5070281;28;20228;-80
2023/12/01 10:06:48;;;;;;;20.77;10.80;;;-1.20;75.30;;;;;;5068943;28;20648;-80
2023/12/01 10:09:27;;;;;;;24.30;11.60;;;-1.00;99.90;;;;;;5065571;28;20222;-80
2023/12/01 10:12:07;;;;;;;22.60;12.40;;;-0.90;73.20;;;;;;5065357;28;20325;-80
2023/12/01 10:14:34;;;;;;;22.00;11.67;;;-0.80;1.00;;;;;;5066320;28;20661;-80
2023/12/01 10:17:05;;;;;;;23.60;11.50;;;-0.70;1.00;;;;;;5058122;28;20230;-80
2023/12/01 10:19:45;;;;;;;21.43;11.47;;;-0.80;1.00;;;;;;5061978;28;20313;-80
2023/12/01 10:22:13;;;;;;;22.27;12.80;;;-0.80;1.00;;;;;;5057807;28;20211;-80
2023/12/01 10:24:40;;;;;;;22.10;11.33;;;-0.70;1.00;;;;;;5058232;28;20199;-80
2023/12/01 10:27:08;;;;;;;22.13;11.83;;;-0.70;1.00;;;;;;5060746;28;20269;-80
2023/12/01 10:29:38;;;;;;;21.60;10.43;;;-0.80;1.00;;;;;;5057937;28;20248;-80
2023/12/01 10:32:11;;;;;;;22.60;12.40;;;-0.70;1.00;;;;;;5060941;28;20203;-80
2023/12/01 10:34:38;;;;;;;25.37;12.93;;;-0.50;1.00;;;;;;5057287;28;20202;-80
2023/12/01 10:37:05;;;;;;;22.80;10.27;;;-0.50;1.00;;;;;;5061120;28;20851;-81
2023/12/01 10:39:34;;;;;;;24.67;11.07;;;-0.30;1.00;;;;;;5062574;28;20232;-82
2023/12/01 10:42:01;;;;;;;22.53;11.33;;;-0.30;99.90;;;;;;5060941;28;20203;-81
2023/12/01 10:44:28;;;;;;;22.70;12.03;;;-0.40;99.90;;;;;;5064766;28;20202;-80
2023/12/01 10:46:57;;;;;;;22.47;10.90;;;-0.20;99.90;;;;;;5067221;28;20195;-80
2023/12/01 10:49:24;;;;;;;21.60;10.90;;;-0.30;99.90;;;;;;5065721;28;20282;-80
2023/12/01 10:51:52;;;;;;;21.27;12.03;;;-0.30;99.90;;;;;;5069096;28;20589;-81
2023/12/01 10:54:23;;;;;;;21.80;9.40;;;-0.30;99.90;;;;;;5071319;28;20302;-81
2023/12/01 10:56:59;;;;;;;20.70;10.10;;;-0.30;98.20;;;;;;5071431;28;20226;-80
2023/12/01 10:59:27;;;;;;;23.83;12.20;;;-0.30;1.00;;;;;;5064534;28;20224;-81
2023/12/01 11:01:55;;;;;;;22.10;10.20;;;-0.20;1.00;;;;;;5072288;28;20237;-80
2023/12/01 11:04:26;;;;;;;20.50;10.37;;;-0.10;1.00;;;;;;5065505;28;20198;-81
2023/12/01 11:07:15;;;;;;;23.07;12.10;;;-0.20;1.00;;;;;;5073718;28;20221;-80
2023/12/01 11:10:07;;;;;;;23.10;10.43;;;-0.20;1.00;;;;;;5060662;28;20229;-80
2023/12/01 11:12:48;;;;;;;19.87;10.17;;;-0.10;1.00;;;;;;5068023;28;20242;-80
2023/12/01 11:15:19;;;;;;;21.03;10.97;;;-0.10;1.00;;;;;;5071319;28;20213;-80
2023/12/01 11:17:46;;;;;;;20.43;11.40;;;-0.10;1.00;;;;;;5070902;28;20207;-80
2023/12/01 11:20:31;;;;;;;22.07;11.27;;;-0.10;1.00;;;;;;5058483;28;20284;-80
2023/12/01 11:23:04;;;;;;;19.63;9.03;;;-0.20;1.00;;;;;;5064861;28;20202;-80
2023/12/01 11:25:41;;;;;;;23.63;10.97;;;-0.30;1.00;;;;;;5077064;28;20723;-80
2023/12/01 11:28:22;;;;;;;21.23;10.40;;;-0.30;1.00;;;;;;5065024;28;20272;-80
2023/12/01 11:31:07;;;;;;;21.23;10.03;;;-0.50;1.00;;;;;;5072223;28;20198;-80
2023/12/01 11:33:37;;;;;;;22.30;11.00;;;-0.40;1.00;;;;;;5066887;28;20206;-80
2023/12/01 11:36:27;;;;;;;20.80;10.73;;;-0.40;1.00;;;;;;5068607;28;20223;-80
2023/12/01 11:39:16;;;;;;;21.03;10.87;;;-0.30;1.00;;;;;;5063856;28;20219;-80
2023/12/01 11:41:49;;;;;;;19.10;10.50;;;-0.20;1.00;;;;;;5065822;28;20639;-80
2023/12/01 11:44:19;;;;;;;21.37;10.20;;;-0.30;1.00;;;;;;5069515;28;20230;-80
2023/12/01 11:46:47;;;;;;;19.40;9.67;;;-0.40;1.00;;;;;;5066681;28;20197;-80
2023/12/01 11:49:15;;;;;;;19.30;10.60;;;-0.30;1.00;;;;;;5069652;28;20260;-80
2023/12/01 11:51:44;;;;;;;17.53;9.17;;;-0.30;1.00;;;;;;5070963;28;20209;-80
2023/12/01 11:54:11;;;;;;;18.97;10.53;;;-0.30;1.00;;;;;;5066751;28;20203;-80
2023/12/01 11:56:38;;;;;;;17.40;9.20;;;-0.20;1.00;;;;;;5062596;28;20706;-81
2023/12/01 11:59:08;;;;;;;16.83;8.33;;;-0.20;99.90;;;;;;5067271;28;20250;-80
2023/12/01 12:01:37;;;;;;;16.40;8.57;;;-0.40;1.00;;;;;;5072888;28;20277;-80
2023/12/01 12:04:05;;;;;;;15.70;8.13;;;-0.40;99.90;;;;;;5070358;28;20198;-81
2023/12/01 12:06:33;;;;;;;16.00;8.57;;;-0.20;99.90;;;;;;5073338;28;20210;-81
2023/12/01 12:09:01;;;;;;;16.53;8.30;;;-0.30;99.90;;;;;;5071517;28;20244;-80
2023/12/01 12:11:29;;;;;;;16.67;8.50;;;-0.50;99.90;;;;;;5074657;28;20198;-80
2023/12/01 12:13:58;;;;;;;16.90;7.47;;;-0.50;99.90;;;;;;5075006;28;20198;-80
2023/12/01 12:16:25;;;;;;;17.97;8.83;;;-0.60;99.90;;;;;;5071976;28;20210;-81
2023/12/01 12:18:54;;;;;;;14.37;7.90;;;-0.60;99.90;;;;;;5069852;28;20249;-81
2023/12/01 12:21:20;;;;;;;15.67;8.30;;;-0.70;99.90;;;;;;5064919;28;20203;-80
2023/12/01 12:23:48;;;;;;;16.10;8.87;;;-0.70;99.90;;;;;;5070102;28;20199;-81
2023/12/01 12:26:20;;;;;;;19.13;9.77;;;-0.50;99.90;;;;;;5067504;28;20207;-82
2023/12/01 12:28:50;;;;;;;14.97;8.17;;;-0.60;99.90;;;;;;5058322;28;20345;-81
2023/12/01 12:31:19;;;;;;;15.83;7.67;;;-0.70;99.90;;;;;;5058408;28;20282;-81
2023/12/01 12:33:45;;;;;;;15.33;7.87;;;-0.60;99.90;;;;;;5067661;28;20583;-79
2023/12/01 12:36:15;;;;;;;15.17;8.53;;;-0.70;99.90;;;;;;5073078;28;20232;-80
2023/12/01 12:38:42;;;;;;;14.67;7.93;;;-0.70;99.90;;;;;;5060133;28;20360;-80
2023/12/01 12:41:25;;;;;;;15.30;7.63;;;-0.70;99.90;;;;;;5061555;28;20210;-80